createdAt,value
2023-04-29T00:02:15.615Z,97.06
2023-04-29T00:04:42.366Z,96.78
2023-04-29T00:07:09.309Z,96.89
2023-04-29T00:09:37.493Z,96.90
2023-04-29T00:12:03.967Z,96.99
2023-04-29T00:14:30.433Z,97.22
2023-04-29T00:16:57.251Z,97.05
2023-04-29T00:19:23.983Z,96.81
2023-04-29T00:21:50.661Z,97.24
2023-04-29T00:24:17.172Z,97.09
2023-04-29T00:26:43.709Z,97.50
2023-04-29T00:29:10.470Z,97.07
2023-04-29T00:31:37.458Z,97.28
2023-04-29T00:34:04.142Z,97.41
2023-04-29T00:36:31.835Z,97.15
2023-04-29T00:38:58.679Z,97.29
2023-04-29T00:41:26.004Z,97.27
2023-04-29T00:43:52.975Z,97.10
2023-04-29T00:46:19.768Z,97.39
2023-04-29T00:48:46.310Z,97.23
2023-04-29T00:51:13.734Z,97.42
2023-04-29T00:53:40.852Z,97.18
2023-04-29T00:56:08.645Z,97.53
2023-04-29T00:58:36.359Z,97.41
2023-04-29T01:01:03.796Z,97.22
2023-04-29T01:03:31.955Z,97.37
2023-04-29T01:06:30.248Z,97.10
2023-04-29T01:09:12.186Z,97.16
2023-04-29T01:12:13.089Z,97.34
2023-04-29T01:14:46.689Z,97.39
2023-04-29T01:17:18.468Z,97.30
2023-04-29T01:19:50.396Z,97.21
2023-04-29T01:22:21.799Z,97.47
2023-04-29T01:24:49.673Z,97.36
2023-04-29T01:27:29.823Z,96.85
2023-04-29T01:30:27.213Z,97.13
2023-04-29T01:33:16.941Z,97.03
2023-04-29T01:36:12.735Z,97.17
2023-04-29T01:38:49.827Z,97.23
2023-04-29T01:41:34.947Z,97.23
2023-04-29T01:44:16.746Z,96.98
2023-04-29T01:46:49.070Z,97.18
2023-04-29T01:49:15.869Z,97.12
2023-04-29T01:51:42.458Z,97.47
2023-04-29T01:54:08.964Z,97.10
2023-04-29T01:56:35.645Z,97.08
2023-04-29T01:59:20.898Z,97.36
2023-04-29T02:02:07.408Z,97.32
2023-04-29T02:04:36.401Z,97.18
2023-04-29T02:07:03.673Z,97.17
2023-04-29T02:09:30.973Z,96.98
2023-04-29T02:12:05.698Z,96.97
2023-04-29T02:14:35.605Z,97.17
2023-04-29T02:17:04.089Z,96.89
2023-04-29T02:19:31.209Z,97.25
2023-04-29T02:21:57.795Z,96.87
2023-04-29T02:24:25.692Z,97.00
2023-04-29T02:26:52.161Z,96.94
2023-04-29T02:29:18.968Z,96.96
2023-04-29T02:31:45.481Z,96.79
2023-04-29T02:34:11.954Z,97.04
2023-04-29T02:36:38.385Z,96.74
2023-04-29T02:39:05.282Z,96.98
2023-04-29T02:41:31.803Z,96.85
2023-04-29T02:43:58.211Z,97.15
2023-04-29T02:46:24.917Z,96.83
2023-04-29T02:48:52.852Z,96.67
2023-04-29T02:51:19.826Z,96.63
2023-04-29T02:53:46.272Z,96.52
2023-04-29T02:56:12.689Z,96.85
2023-04-29T02:58:39.153Z,96.80
2023-04-29T03:01:05.671Z,96.73
2023-04-29T03:03:32.282Z,96.96
2023-04-29T03:05:58.965Z,96.76
2023-04-29T03:08:25.486Z,96.57
2023-04-29T03:10:52.150Z,96.65
2023-04-29T03:13:19.140Z,96.64
2023-04-29T03:15:45.683Z,96.33
2023-04-29T03:18:12.218Z,96.67
2023-04-29T03:20:38.714Z,96.21
2023-04-29T03:23:05.349Z,96.16
2023-04-29T03:25:31.772Z,96.54
2023-04-29T03:27:58.241Z,96.14
2023-04-29T03:30:24.863Z,96.15
2023-04-29T03:32:55.050Z,96.14
2023-04-29T03:35:21.774Z,95.97
2023-04-29T03:38:13.920Z,95.86
2023-04-29T03:40:40.715Z,95.56
2023-04-29T03:43:09.336Z,95.30
2023-04-29T03:45:35.936Z,95.06
2023-04-29T03:48:03.470Z,95.00
2023-04-29T03:50:30.235Z,94.81
2023-04-29T03:52:57.757Z,94.66
2023-04-29T03:55:24.243Z,94.37
2023-04-29T03:57:51.160Z,94.37
2023-04-29T04:00:18.863Z,94.13
2023-04-29T04:02:49.924Z,93.98
2023-04-29T04:05:19.369Z,94.02
2023-04-29T04:07:49.530Z,93.73
2023-04-29T04:10:34.101Z,93.43
2023-04-29T04:13:03.742Z,93.40
2023-04-29T04:15:30.287Z,93.06
2023-04-29T04:17:57.928Z,93.10
2023-04-29T04:20:24.458Z,92.78
2023-04-29T04:22:50.989Z,92.75
2023-04-29T04:25:30.252Z,92.71
2023-04-29T04:28:06.217Z,92.05
2023-04-29T04:30:50.900Z,92.06
2023-04-29T04:33:17.546Z,92.38
2023-04-29T04:35:45.822Z,91.77
2023-04-29T04:38:12.559Z,91.76
2023-04-29T04:40:42.468Z,91.95
2023-04-29T04:43:26.903Z,92.20
2023-04-29T04:45:54.267Z,92.31
2023-04-29T04:48:20.765Z,92.63
2023-04-29T04:51:10.042Z,92.84
2023-04-29T04:53:36.969Z,92.46
2023-04-29T04:56:08.486Z,92.21
2023-04-29T04:58:35.890Z,92.39
2023-04-29T05:01:03.469Z,92.67
2023-04-29T05:03:30.203Z,92.94
2023-04-29T05:05:58.330Z,92.38
2023-04-29T05:08:25.752Z,92.56
2023-04-29T05:10:55.556Z,92.27
2023-04-29T05:13:22.312Z,92.40
2023-04-29T05:15:49.080Z,92.72
2023-04-29T05:18:20.747Z,92.30
2023-04-29T05:20:49.725Z,92.35
2023-04-29T05:23:16.367Z,92.02
2023-04-29T05:25:45.238Z,91.70
2023-04-29T05:28:11.784Z,91.63
2023-04-29T05:30:40.985Z,92.05
2023-04-29T05:33:08.145Z,91.17
2023-04-29T05:35:34.745Z,90.49
2023-04-29T05:38:01.300Z,90.57
2023-04-29T05:40:35.538Z,90.95
2023-04-29T05:43:21.768Z,90.76
2023-04-29T05:45:48.515Z,90.57
2023-04-29T05:48:14.956Z,89.39
2023-04-29T05:50:41.552Z,89.00
2023-04-29T05:53:08.354Z,88.25
2023-04-29T05:55:35.509Z,87.70
2023-04-29T05:58:02.063Z,87.09
2023-04-29T06:00:28.538Z,85.81
2023-04-29T06:03:01.580Z,85.17
2023-04-29T06:05:28.773Z,84.26
2023-04-29T06:08:10.706Z,84.16
2023-04-29T06:10:45.891Z,84.10
2023-04-29T06:13:12.550Z,83.46
2023-04-29T06:15:39.272Z,84.02
2023-04-29T06:18:05.806Z,83.29
2023-04-29T06:20:32.403Z,83.94
2023-04-29T06:22:58.878Z,83.38
2023-04-29T06:25:25.370Z,82.30
2023-04-29T06:27:51.852Z,82.74
2023-04-29T06:30:22.076Z,81.64
2023-04-29T06:32:48.592Z,81.14
2023-04-29T06:35:15.556Z,81.88
2023-04-29T06:38:08.089Z,82.05
2023-04-29T06:40:40.220Z,81.19
2023-04-29T06:43:12.377Z,80.32
2023-04-29T06:46:10.024Z,79.42
2023-04-29T06:48:45.954Z,77.67
2023-04-29T06:51:12.754Z,77.87
2023-04-29T06:53:39.249Z,77.30
2023-04-29T06:56:06.799Z,77.89
2023-04-29T06:58:33.238Z,75.40
2023-04-29T07:01:00.456Z,73.08
2023-04-29T07:03:27.442Z,70.47
2023-04-29T07:05:53.970Z,72.33
2023-04-29T07:08:20.421Z,64.56
2023-04-29T07:10:55.093Z,66.97
2023-04-29T07:13:23.581Z,69.70
2023-04-29T07:15:51.037Z,71.52
2023-04-29T07:18:17.950Z,71.95
2023-04-29T07:20:44.547Z,71.14
2023-04-29T07:23:11.243Z,68.05
2023-04-29T07:25:37.886Z,57.14
2023-04-29T07:28:05.474Z,56.94
2023-04-29T07:30:32.062Z,61.47
2023-04-29T07:32:58.592Z,65.67
2023-04-29T07:35:25.028Z,69.13
2023-04-29T07:37:51.672Z,67.52
2023-04-29T07:40:18.540Z,68.03
2023-04-29T07:42:45.353Z,69.89
2023-04-29T07:45:13.811Z,68.30
2023-04-29T07:47:40.426Z,65.62
2023-04-29T07:50:07.324Z,58.83
2023-04-29T07:52:34.031Z,49.29
2023-04-29T07:55:00.763Z,47.01
2023-04-29T07:57:27.200Z,44.63
2023-04-29T07:59:54.606Z,41.66
2023-04-29T08:02:21.767Z,39.67
2023-04-29T08:04:51.359Z,37.68
2023-04-29T08:07:18.449Z,39.70
2023-04-29T08:09:45.058Z,37.03
2023-04-29T08:12:11.532Z,36.83
2023-04-29T08:14:40.289Z,35.32
2023-04-29T08:17:07.441Z,36.00
2023-04-29T08:19:33.997Z,35.09
2023-04-29T08:22:01.177Z,37.17
2023-04-29T08:24:29.012Z,37.57
2023-04-29T08:26:55.459Z,41.61
2023-04-29T08:29:21.988Z,46.50
2023-04-29T08:31:48.544Z,47.42
2023-04-29T08:34:15.045Z,49.53
2023-04-29T08:36:41.511Z,52.09
2023-04-29T08:39:08.555Z,47.72
2023-04-29T08:41:37.028Z,44.71
2023-04-29T08:44:03.533Z,41.08
2023-04-29T08:46:30.952Z,41.96
2023-04-29T08:48:58.804Z,43.95
2023-04-29T08:51:25.689Z,44.81
2023-04-29T08:53:52.201Z,47.67
2023-04-29T08:56:20.513Z,50.04
2023-04-29T08:58:51.836Z,48.17
2023-04-29T09:01:18.843Z,51.56
2023-04-29T09:04:05.807Z,54.20
2023-04-29T09:06:33.402Z,53.87
2023-04-29T09:09:02.006Z,58.33
2023-04-29T09:11:29.889Z,49.80
2023-04-29T09:14:01.376Z,48.75
2023-04-29T09:16:28.905Z,52.40
2023-04-29T09:18:56.686Z,48.67
2023-04-29T09:21:25.953Z,47.01
2023-04-29T09:24:03.015Z,49.00
2023-04-29T09:26:43.891Z,46.71
2023-04-29T09:29:16.127Z,43.56
2023-04-29T09:31:42.882Z,41.69
2023-04-29T09:34:14.320Z,43.79
2023-04-29T09:36:47.519Z,47.76
2023-04-29T09:39:19.174Z,44.85
2023-04-29T09:41:54.467Z,46.73
2023-04-29T09:44:26.738Z,44.11
2023-04-29T09:47:04.611Z,45.12
2023-04-29T09:49:37.418Z,40.79
2023-04-29T09:52:06.035Z,39.91
2023-04-29T09:54:34.279Z,41.45
2023-04-29T09:57:02.580Z,44.21
2023-04-29T09:59:29.133Z,45.25
2023-04-29T10:01:58.059Z,43.03
2023-04-29T10:04:26.980Z,39.18
2023-04-29T10:06:55.356Z,39.47
2023-04-29T10:09:23.741Z,36.70
2023-04-29T10:11:54.004Z,39.22
2023-04-29T10:14:22.412Z,37.66
2023-04-29T10:17:02.262Z,39.55
2023-04-29T10:19:35.640Z,44.19
2023-04-29T10:22:08.888Z,44.04
2023-04-29T10:24:39.959Z,41.74
2023-04-29T10:27:14.373Z,44.06
2023-04-29T10:29:42.011Z,38.90
2023-04-29T10:32:12.948Z,39.48
2023-04-29T10:34:40.582Z,40.54
2023-04-29T10:37:09.998Z,39.56
2023-04-29T10:39:44.095Z,40.51
2023-04-29T10:42:39.256Z,44.28
2023-04-29T10:45:24.746Z,45.49
2023-04-29T10:48:09.076Z,41.84
2023-04-29T10:50:48.861Z,39.73
2023-04-29T10:53:15.924Z,41.79
2023-04-29T10:55:46.963Z,41.54
2023-04-29T10:58:46.394Z,43.32
2023-04-29T11:01:17.583Z,42.47
2023-04-29T11:03:49.490Z,40.72
2023-04-29T11:06:16.801Z,43.03
2023-04-29T11:08:43.405Z,43.81
2023-04-29T11:11:10.096Z,43.62
2023-04-29T11:13:40.460Z,45.81
2023-04-29T11:16:09.658Z,45.42
2023-04-29T11:18:56.821Z,39.21
2023-04-29T11:21:23.488Z,39.79
2023-04-29T11:23:52.357Z,43.25
2023-04-29T11:26:23.859Z,42.62
2023-04-29T11:28:52.036Z,43.59
2023-04-29T11:31:18.485Z,42.32
2023-04-29T11:33:46.666Z,45.26
2023-04-29T11:36:14.243Z,45.46
2023-04-29T11:38:41.744Z,50.04
2023-04-29T11:41:08.891Z,44.14
2023-04-29T11:43:35.302Z,43.90
2023-04-29T11:46:01.906Z,40.93
2023-04-29T11:48:30.213Z,43.79
2023-04-29T11:50:57.845Z,42.72
2023-04-29T11:53:27.776Z,41.41
2023-04-29T11:55:55.132Z,44.40
2023-04-29T11:58:23.265Z,39.66
2023-04-29T12:00:52.023Z,40.02
2023-04-29T12:03:20.893Z,45.17
2023-04-29T12:05:54.584Z,40.80
2023-04-29T12:08:21.900Z,44.32
2023-04-29T12:10:48.963Z,43.35
2023-04-29T12:13:19.556Z,42.33
2023-04-29T12:15:51.151Z,43.27
2023-04-29T12:18:19.312Z,40.38
2023-04-29T12:20:46.764Z,40.12
2023-04-29T12:23:14.644Z,39.97
2023-04-29T12:25:42.509Z,45.06
2023-04-29T12:28:13.168Z,44.52
2023-04-29T12:30:39.700Z,43.13
2023-04-29T12:33:09.643Z,44.19
2023-04-29T12:35:37.566Z,43.56
2023-04-29T12:38:04.168Z,45.48
2023-04-29T12:40:32.716Z,46.05
2023-04-29T12:43:07.015Z,45.92
2023-04-29T12:45:34.041Z,45.92
2023-04-29T12:48:02.411Z,46.17
2023-04-29T12:50:37.823Z,45.67
2023-04-29T12:53:06.410Z,49.10
2023-04-29T12:55:34.922Z,44.74
2023-04-29T12:58:01.910Z,45.38
2023-04-29T13:00:28.308Z,47.85
2023-04-29T13:02:55.389Z,45.09
2023-04-29T13:05:22.787Z,46.73
2023-04-29T13:07:49.900Z,47.40
2023-04-29T13:10:16.442Z,43.10
2023-04-29T13:12:42.989Z,43.23
2023-04-29T13:15:10.346Z,45.31
2023-04-29T13:17:37.617Z,46.86
2023-04-29T13:20:05.648Z,44.05
2023-04-29T13:22:32.748Z,44.11
2023-04-29T13:24:59.450Z,46.72
2023-04-29T13:27:25.981Z,43.62
2023-04-29T13:29:52.535Z,44.34
2023-04-29T13:32:21.375Z,44.72
2023-04-29T13:34:47.998Z,46.98
2023-04-29T13:37:15.676Z,43.30
2023-04-29T13:39:45.718Z,47.82
2023-04-29T13:42:15.522Z,43.03
2023-04-29T13:44:52.271Z,42.94
2023-04-29T13:47:24.669Z,42.21
2023-04-29T13:55:25.812Z,44.10
2023-04-29T14:00:30.945Z,46.63
2023-04-29T14:05:25.384Z,45.90
2023-04-29T14:07:52.179Z,47.97
2023-04-29T14:10:18.677Z,46.73
2023-04-29T14:12:45.549Z,45.60
2023-04-29T14:15:12.158Z,45.89
2023-04-29T14:17:38.676Z,46.12
2023-04-29T14:20:05.940Z,47.83
2023-04-29T14:22:32.545Z,46.71
2023-04-29T14:24:58.978Z,47.51
2023-04-29T14:27:25.635Z,47.03
2023-04-29T14:29:52.105Z,48.04
2023-04-29T14:32:18.558Z,45.56
2023-04-29T14:34:45.006Z,46.28
2023-04-29T14:37:11.867Z,45.76
2023-04-29T14:39:38.286Z,46.15
2023-04-29T14:42:05.352Z,45.00
2023-04-29T14:44:31.858Z,45.69
2023-04-29T14:46:58.358Z,47.79
2023-04-29T14:49:24.897Z,44.89
2023-04-29T14:51:51.607Z,47.14
2023-04-29T14:54:18.037Z,47.40
2023-04-29T14:56:44.427Z,46.36
2023-04-29T14:59:11.028Z,47.31
2023-04-29T15:01:39.581Z,46.44
2023-04-29T15:04:06.194Z,46.92
2023-04-29T15:06:32.866Z,47.16
2023-04-29T15:08:59.359Z,44.74
2023-04-29T15:11:26.149Z,45.51
2023-04-29T15:13:52.574Z,46.29
2023-04-29T15:16:19.410Z,45.81
2023-04-29T15:18:46.504Z,46.21
2023-04-29T15:21:13.110Z,47.26
2023-04-29T15:23:39.665Z,48.37
2023-04-29T15:26:07.141Z,46.98
2023-04-29T15:28:33.729Z,47.59
2023-04-29T15:31:01.790Z,47.69
2023-04-29T15:33:28.290Z,50.38
2023-04-29T15:35:56.688Z,47.67
2023-04-29T15:38:23.280Z,47.31
2023-04-29T15:40:49.887Z,47.18
2023-04-29T15:43:16.634Z,48.83
2023-04-29T15:45:43.097Z,47.25
2023-04-29T15:48:09.991Z,48.15
2023-04-29T15:50:36.426Z,48.52
2023-04-29T15:53:02.909Z,47.79
2023-04-29T15:55:29.337Z,49.63
2023-04-29T15:57:55.799Z,48.62
2023-04-29T16:00:22.340Z,48.85
2023-04-29T16:02:48.866Z,48.99
2023-04-29T16:05:15.450Z,49.82
2023-04-29T16:07:42.022Z,46.73
2023-04-29T16:10:09.987Z,48.33
2023-04-29T16:12:36.615Z,48.78
2023-04-29T16:15:04.275Z,48.80
2023-04-29T16:17:34.508Z,48.95
2023-04-29T16:20:01.485Z,48.22
2023-04-29T16:22:28.107Z,48.22
2023-04-29T16:24:54.590Z,48.33
2023-04-29T16:27:21.261Z,48.03
2023-04-29T16:29:47.786Z,47.58
2023-04-29T16:32:14.455Z,46.56
2023-04-29T16:34:41.746Z,45.34
2023-04-29T16:37:12.426Z,45.32
2023-04-29T16:39:39.773Z,45.59
2023-04-29T16:42:07.282Z,45.99
2023-04-29T16:44:33.747Z,45.63
2023-04-29T16:47:00.234Z,43.28
2023-04-29T16:49:26.805Z,42.85
2023-04-29T16:51:54.510Z,40.42
2023-04-29T16:54:23.975Z,41.36
2023-04-29T16:56:51.309Z,42.83
2023-04-29T16:59:18.082Z,43.30
2023-04-29T17:01:44.943Z,42.79
2023-04-29T17:04:11.699Z,41.78
2023-04-29T17:06:40.457Z,41.49
2023-04-29T17:09:07.410Z,42.26
2023-04-29T17:11:33.899Z,43.10
2023-04-29T17:14:00.306Z,42.86
2023-04-29T17:16:27.253Z,42.96
2023-04-29T17:18:54.334Z,43.12
2023-04-29T17:21:24.611Z,43.26
2023-04-29T17:23:53.020Z,42.64
2023-04-29T17:26:20.323Z,45.33
2023-04-29T17:28:46.930Z,43.86
2023-04-29T17:31:15.425Z,44.84
2023-04-29T17:33:50.428Z,45.83
2023-04-29T17:36:17.359Z,45.17
2023-04-29T17:38:43.826Z,46.14
2023-04-29T17:41:10.328Z,45.74
2023-04-29T17:43:36.919Z,45.77
2023-04-29T17:46:03.779Z,45.60
2023-04-29T17:48:32.207Z,46.15
2023-04-29T17:50:58.877Z,46.35
2023-04-29T17:53:26.147Z,46.88
2023-04-29T17:55:52.538Z,46.08
2023-04-29T17:58:19.016Z,46.22
2023-04-29T18:00:46.261Z,46.19
2023-04-29T18:03:12.834Z,47.10
2023-04-29T18:05:39.513Z,46.84
2023-04-29T18:08:06.278Z,46.65
2023-04-29T18:10:32.710Z,46.72
2023-04-29T18:12:59.747Z,47.43
2023-04-29T18:15:26.261Z,47.21
2023-04-29T18:17:54.486Z,47.26
2023-04-29T18:20:22.422Z,47.91
2023-04-29T18:22:50.565Z,48.18
2023-04-29T18:25:17.402Z,47.27
2023-04-29T18:27:44.439Z,47.88
2023-04-29T18:30:11.224Z,47.62
2023-04-29T18:32:38.426Z,47.66
2023-04-29T18:35:05.761Z,47.84
2023-04-29T18:37:32.230Z,47.94
2023-04-29T18:39:58.731Z,47.19
2023-04-29T18:42:25.820Z,50.08
2023-04-29T18:44:52.417Z,49.25
2023-04-29T18:47:21.808Z,49.52
2023-04-29T18:49:48.383Z,49.65
2023-04-29T18:52:14.897Z,49.58
2023-04-29T18:54:41.286Z,49.38
2023-04-29T18:57:07.824Z,49.49
2023-04-29T18:59:37.542Z,50.52
2023-04-29T19:02:06.002Z,50.91
2023-04-29T19:04:33.206Z,51.69
2023-04-29T19:07:00.249Z,52.80
2023-04-29T19:09:28.207Z,53.21
2023-04-29T19:11:54.766Z,53.78
2023-04-29T19:14:21.393Z,53.01
2023-04-29T19:16:47.938Z,54.03
2023-04-29T19:19:14.439Z,55.08
2023-04-29T19:21:40.953Z,54.80
2023-04-29T19:24:07.434Z,55.21
2023-04-29T19:26:36.028Z,55.73
2023-04-29T19:29:03.849Z,55.69
2023-04-29T19:31:30.536Z,55.85
2023-04-29T19:33:57.142Z,57.37
2023-04-29T19:36:23.561Z,57.84
2023-04-29T19:38:50.177Z,58.91
2023-04-29T19:41:17.643Z,58.24
2023-04-29T19:43:44.057Z,57.99
2023-04-29T19:46:14.187Z,59.15
2023-04-29T19:48:40.970Z,59.58
2023-04-29T19:51:08.414Z,61.25
2023-04-29T19:53:38.549Z,60.73
2023-04-29T19:56:05.412Z,61.79
2023-04-29T19:58:35.235Z,62.05
2023-04-29T20:01:01.793Z,62.69
2023-04-29T20:03:28.409Z,63.00
2023-04-29T20:05:55.121Z,63.91
2023-04-29T20:08:21.773Z,64.24
2023-04-29T20:10:48.430Z,64.93
2023-04-29T20:13:15.586Z,65.46
2023-04-29T20:15:42.245Z,67.24
2023-04-29T20:18:08.705Z,66.94
2023-04-29T20:20:35.366Z,67.56
2023-04-29T20:23:01.828Z,67.65
2023-04-29T20:25:28.435Z,68.38
2023-04-29T20:27:54.892Z,69.78
2023-04-29T20:30:21.635Z,69.60
2023-04-29T20:32:48.348Z,70.64
2023-04-29T20:35:15.644Z,70.58
2023-04-29T20:37:42.076Z,71.37
2023-04-29T20:40:09.742Z,71.67
2023-04-29T20:42:36.178Z,72.02
2023-04-29T20:45:02.774Z,72.36
2023-04-29T20:47:30.074Z,72.53
2023-04-29T20:49:57.905Z,72.38
2023-04-29T20:52:24.361Z,73.13
2023-04-29T20:54:52.505Z,73.32
2023-04-29T20:57:18.966Z,73.53
2023-04-29T20:59:45.825Z,74.06
2023-04-29T21:02:12.401Z,74.05
2023-04-29T21:04:38.851Z,74.95
2023-04-29T21:07:06.913Z,74.56
2023-04-29T21:09:35.656Z,75.36
2023-04-29T21:12:04.407Z,75.53
2023-04-29T21:14:31.081Z,75.92
2023-04-29T21:16:57.725Z,75.99
2023-04-29T21:19:24.396Z,76.44
2023-04-29T21:21:50.882Z,76.54
2023-04-29T21:24:17.362Z,76.73
2023-04-29T21:26:43.966Z,77.13
2023-04-29T21:29:10.459Z,77.58
2023-04-29T21:31:37.003Z,77.62
2023-04-29T21:34:03.571Z,77.68
2023-04-29T21:36:31.983Z,77.84
2023-04-29T21:38:58.447Z,78.03
2023-04-29T21:41:31.103Z,78.54
2023-04-29T21:43:59.124Z,78.54
2023-04-29T21:46:28.211Z,78.77
2023-04-29T21:48:58.040Z,78.82
2023-04-29T21:51:24.782Z,79.05
2023-04-29T21:53:51.461Z,79.10
2023-04-29T21:56:18.177Z,79.53
2023-04-29T21:58:45.341Z,79.75
2023-04-29T22:01:29.457Z,79.86
2023-04-29T22:03:57.048Z,80.16
2023-04-29T22:06:24.076Z,80.61
2023-04-29T22:08:50.709Z,80.47
2023-04-29T22:11:18.318Z,80.76
2023-04-29T22:13:45.495Z,80.97
2023-04-29T22:16:12.314Z,81.13
2023-04-29T22:18:38.998Z,81.16
2023-04-29T22:21:05.708Z,81.31
2023-04-29T22:23:32.177Z,81.87
2023-04-29T22:25:58.813Z,82.19
2023-04-29T22:28:25.343Z,82.42
2023-04-29T22:30:52.042Z,82.74
2023-04-29T22:33:18.428Z,82.71
2023-04-29T22:35:45.145Z,82.55
2023-04-29T22:38:11.584Z,82.63
2023-04-29T22:40:38.265Z,82.70
2023-04-29T22:43:04.789Z,83.11
2023-04-29T22:45:32.015Z,82.84
2023-04-29T22:47:58.502Z,82.77
2023-04-29T22:50:24.985Z,83.54
2023-04-29T22:52:51.517Z,83.57
2023-04-29T22:55:18.125Z,83.30
2023-04-29T22:57:44.514Z,83.58
2023-04-29T23:00:11.811Z,83.66
2023-04-29T23:02:38.208Z,83.65
2023-04-29T23:05:07.505Z,83.75
2023-04-29T23:07:34.029Z,83.77
2023-04-29T23:10:00.472Z,83.98
2023-04-29T23:12:26.921Z,83.86
2023-04-29T23:14:53.547Z,84.44
2023-04-29T23:17:20.051Z,83.89
2023-04-29T23:19:46.615Z,84.20
2023-04-29T23:22:13.131Z,84.23
2023-04-29T23:24:40.239Z,84.99
2023-04-29T23:27:06.702Z,84.71
2023-04-29T23:29:36.220Z,84.88
2023-04-29T23:32:03.250Z,84.97
2023-04-29T23:34:29.719Z,84.62
2023-04-29T23:36:56.282Z,85.24
2023-04-29T23:39:22.781Z,85.21
2023-04-29T23:41:49.505Z,85.00
2023-04-29T23:44:15.957Z,85.23
2023-04-29T23:46:42.403Z,85.34
2023-04-29T23:49:10.375Z,85.11
2023-04-29T23:51:36.852Z,85.53
2023-04-29T23:54:03.491Z,85.17
2023-04-29T23:56:31.404Z,85.02
2023-04-29T23:58:57.903Z,85.68
